createdAt,value
2023-01-26T00:01:01.910Z,2.13
2023-01-26T00:03:34.348Z,2.13
2023-01-26T00:06:08.549Z,2.11
2023-01-26T00:08:41.931Z,2.09
2023-01-26T00:11:17.282Z,2.04
2023-01-26T00:13:52.744Z,2.01
2023-01-26T00:16:25.521Z,1.96
2023-01-26T00:18:58.049Z,1.93
2023-01-26T00:21:30.336Z,1.91
2023-01-26T00:24:04.792Z,1.90
2023-01-26T00:26:37.411Z,1.89
2023-01-26T00:29:09.774Z,1.91
2023-01-26T00:31:42.257Z,1.93
2023-01-26T00:34:14.581Z,1.90
2023-01-26T00:36:47.159Z,1.86
2023-01-26T00:39:19.902Z,1.89
2023-01-26T00:42:09.591Z,1.85
2023-01-26T00:44:43.286Z,1.79
2023-01-26T00:47:16.584Z,1.75
2023-01-26T00:49:48.902Z,1.72
2023-01-26T00:52:21.192Z,1.68
2023-01-26T00:54:53.348Z,1.66
2023-01-26T00:57:25.603Z,1.63
2023-01-26T00:59:58.258Z,1.60
2023-01-26T01:02:30.607Z,1.58
2023-01-26T01:05:02.917Z,1.57
2023-01-26T01:07:35.312Z,1.56
2023-01-26T01:10:09.097Z,1.57
2023-01-26T01:12:41.419Z,1.60
2023-01-26T01:15:14.053Z,1.64
2023-01-26T01:17:46.436Z,1.69
2023-01-26T01:20:19.309Z,1.73
2023-01-26T01:22:53.953Z,1.75
2023-01-26T01:25:26.390Z,1.76
2023-01-26T01:27:58.777Z,1.78
2023-01-26T01:30:31.080Z,1.79
2023-01-26T01:33:03.360Z,1.79
2023-01-26T01:35:36.429Z,1.77
2023-01-26T01:38:11.463Z,1.73
2023-01-26T01:40:47.162Z,1.71
2023-01-26T01:43:19.671Z,1.64
2023-01-26T01:45:53.384Z,1.57
2023-01-26T01:48:31.451Z,1.51
2023-01-26T01:51:09.676Z,1.46
2023-01-26T01:53:47.590Z,1.45
2023-01-26T01:56:24.926Z,1.42
2023-01-26T01:58:59.680Z,1.35
2023-01-26T02:01:32.551Z,1.33
2023-01-26T02:04:07.111Z,1.27
2023-01-26T02:06:44.989Z,1.23
2023-01-26T02:09:31.539Z,1.25
2023-01-26T02:12:06.227Z,1.21
2023-01-26T02:14:39.501Z,1.23
2023-01-26T02:17:12.086Z,1.23
2023-01-26T02:19:52.232Z,1.24
2023-01-26T02:22:33.209Z,1.24
2023-01-26T02:25:14.275Z,1.22
2023-01-26T02:27:46.652Z,1.25
2023-01-26T02:30:19.984Z,1.29
2023-01-26T02:32:52.611Z,1.35
2023-01-26T02:35:25.081Z,1.41
2023-01-26T02:37:58.061Z,1.43
2023-01-26T02:40:39.545Z,1.45
2023-01-26T02:43:12.552Z,1.47
2023-01-26T02:45:45.541Z,1.47
2023-01-26T02:48:38.006Z,1.47
2023-01-26T02:51:10.665Z,1.46
2023-01-26T02:53:42.977Z,1.45
2023-01-26T02:56:15.349Z,1.44
2023-01-26T02:58:47.593Z,1.46
2023-01-26T03:01:19.965Z,1.50
2023-01-26T03:03:52.255Z,1.52
2023-01-26T03:06:24.412Z,1.58
2023-01-26T03:08:56.843Z,1.65
2023-01-26T03:11:42.171Z,1.69
2023-01-26T03:14:15.957Z,1.74
2023-01-26T03:16:48.277Z,1.77
2023-01-26T03:19:38.374Z,1.84
2023-01-26T03:22:28.921Z,1.94
2023-01-26T03:25:18.520Z,1.98
2023-01-26T03:27:51.513Z,2.01
2023-01-26T03:30:23.939Z,2.03
2023-01-26T03:32:56.518Z,2.02
2023-01-26T03:35:28.835Z,1.97
2023-01-26T03:38:01.150Z,1.96
2023-01-26T03:40:50.769Z,1.95
2023-01-26T03:43:40.672Z,1.97
2023-01-26T03:46:30.852Z,1.90
2023-01-26T03:49:20.849Z,1.85
2023-01-26T03:52:10.711Z,1.81
2023-01-26T03:55:00.770Z,1.80
2023-01-26T03:57:33.360Z,1.76
2023-01-26T04:00:08.005Z,1.73
2023-01-26T04:02:58.041Z,1.71
2023-01-26T04:05:47.998Z,1.70
2023-01-26T04:08:24.092Z,1.71
2023-01-26T04:10:58.127Z,1.71
2023-01-26T04:13:48.080Z,1.69
2023-01-26T04:16:37.787Z,1.74
2023-01-26T04:19:27.288Z,1.85
2023-01-26T04:22:01.838Z,1.92
2023-01-26T04:24:34.203Z,1.95
2023-01-26T04:27:06.753Z,1.96
2023-01-26T04:29:38.984Z,2.02
2023-01-26T04:32:11.297Z,2.10
2023-01-26T04:34:43.617Z,2.14
2023-01-26T04:37:16.047Z,2.17
2023-01-26T04:39:48.276Z,2.18
2023-01-26T04:42:20.599Z,2.17
2023-01-26T04:44:53.218Z,2.12
2023-01-26T04:47:27.591Z,2.09
2023-01-26T04:50:01.286Z,2.07
2023-01-26T04:52:33.662Z,2.03
2023-01-26T04:55:06.686Z,1.96
2023-01-26T04:57:38.979Z,1.92
2023-01-26T05:00:14.279Z,1.92
2023-01-26T05:02:46.840Z,1.89
2023-01-26T05:05:19.411Z,1.85
2023-01-26T05:07:53.428Z,1.85
2023-01-26T05:10:26.039Z,1.92
2023-01-26T05:12:58.682Z,1.94
2023-01-26T05:15:31.018Z,1.95
2023-01-26T05:18:03.861Z,1.96
2023-01-26T05:20:36.533Z,1.97
2023-01-26T05:23:08.840Z,2.01
2023-01-26T05:25:41.753Z,2.00
2023-01-26T05:28:14.140Z,2.06
2023-01-26T05:30:46.648Z,2.09
2023-01-26T05:33:22.156Z,2.10
2023-01-26T05:35:55.532Z,2.16
2023-01-26T05:38:27.997Z,2.20
2023-01-26T05:41:00.682Z,2.16
2023-01-26T05:43:33.017Z,2.13
2023-01-26T05:46:05.418Z,2.14
2023-01-26T05:48:37.905Z,2.09
2023-01-26T05:51:10.256Z,2.04
2023-01-26T05:53:42.546Z,2.02
2023-01-26T05:56:14.964Z,1.98
2023-01-26T05:58:47.261Z,1.95
2023-01-26T06:01:19.616Z,1.94
2023-01-26T06:03:51.941Z,1.87
2023-01-26T06:06:24.213Z,1.89
2023-01-26T06:08:56.505Z,1.90
2023-01-26T06:11:28.849Z,1.89
2023-01-26T06:14:04.137Z,1.87
2023-01-26T06:16:36.502Z,1.88
2023-01-26T06:19:10.750Z,1.92
2023-01-26T06:21:43.254Z,1.94
2023-01-26T06:24:15.832Z,1.94
2023-01-26T06:26:50.639Z,1.95
2023-01-26T06:29:23.006Z,2.00
2023-01-26T06:31:55.248Z,2.04
2023-01-26T06:34:27.820Z,2.09
2023-01-26T06:37:03.029Z,2.14
2023-01-26T06:39:35.635Z,2.18
2023-01-26T06:42:08.981Z,2.13
2023-01-26T06:44:41.339Z,2.06
2023-01-26T06:47:15.094Z,2.07
2023-01-26T06:49:47.406Z,2.02
2023-01-26T06:52:37.235Z,1.96
2023-01-26T06:55:20.297Z,1.90
2023-01-26T06:57:52.681Z,1.89
2023-01-26T07:00:26.156Z,1.88
2023-01-26T07:02:58.573Z,1.89
2023-01-26T07:05:30.970Z,1.91
2023-01-26T07:08:04.502Z,1.90
2023-01-26T07:10:36.931Z,1.85
2023-01-26T07:13:09.435Z,1.87
2023-01-26T07:15:41.701Z,1.88
2023-01-26T07:18:14.044Z,1.93
2023-01-26T07:20:46.259Z,1.95
2023-01-26T07:23:18.522Z,1.96
2023-01-26T07:25:50.831Z,1.98
2023-01-26T07:28:23.537Z,1.98
2023-01-26T07:30:58.544Z,2.05
2023-01-26T07:33:31.654Z,2.08
2023-01-26T07:36:04.323Z,2.06
2023-01-26T07:38:37.362Z,2.06
2023-01-26T07:41:13.763Z,2.07
2023-01-26T07:43:46.165Z,2.01
2023-01-26T07:46:18.581Z,1.94
2023-01-26T07:48:50.932Z,1.91
2023-01-26T07:51:23.696Z,1.87
2023-01-26T07:53:56.096Z,1.85
2023-01-26T07:56:28.548Z,1.80
2023-01-26T07:59:02.891Z,1.70
2023-01-26T08:01:36.199Z,1.63
2023-01-26T08:04:08.568Z,1.55
2023-01-26T08:06:40.885Z,1.54
2023-01-26T08:09:13.755Z,1.51
2023-01-26T08:11:46.190Z,1.51
2023-01-26T08:14:18.730Z,1.57
2023-01-26T08:16:50.959Z,1.61
2023-01-26T08:19:23.397Z,1.65
2023-01-26T08:21:57.789Z,1.67
2023-01-26T08:24:30.593Z,1.69
2023-01-26T08:27:02.884Z,1.77
2023-01-26T08:29:35.207Z,1.84
2023-01-26T08:32:08.343Z,1.90
2023-01-26T08:34:40.839Z,1.96
2023-01-26T08:37:13.112Z,1.98
2023-01-26T08:39:45.535Z,2.01
2023-01-26T08:42:18.093Z,2.00
2023-01-26T08:44:50.522Z,2.00
2023-01-26T08:47:22.775Z,2.04
2023-01-26T08:49:55.120Z,2.08
2023-01-26T08:52:27.461Z,2.05
2023-01-26T08:55:00.696Z,2.01
2023-01-26T08:57:33.130Z,1.98
2023-01-26T09:00:07.426Z,1.95
2023-01-26T09:02:40.302Z,1.96
2023-01-26T09:05:13.443Z,1.95
2023-01-26T09:07:46.740Z,1.95
2023-01-26T09:10:19.464Z,1.92
2023-01-26T09:12:51.975Z,1.92
2023-01-26T09:15:24.278Z,1.89
2023-01-26T09:17:56.565Z,1.90
2023-01-26T09:20:29.615Z,1.93
2023-01-26T09:23:02.075Z,1.95
2023-01-26T09:25:37.267Z,1.95
2023-01-26T09:28:09.581Z,1.93
2023-01-26T09:30:41.982Z,1.90
2023-01-26T09:33:14.341Z,1.93
2023-01-26T09:35:46.699Z,1.96
2023-01-26T09:38:19.043Z,2.01
2023-01-26T09:41:03.852Z,2.04
2023-01-26T09:43:41.680Z,2.08
2023-01-26T09:46:23.814Z,2.19
2023-01-26T09:49:06.697Z,2.23
2023-01-26T09:51:43.223Z,2.22
2023-01-26T09:54:27.819Z,2.21
2023-01-26T09:57:03.895Z,2.19
2023-01-26T09:59:42.902Z,2.08
2023-01-26T10:02:27.448Z,2.00
2023-01-26T10:05:06.005Z,1.95
2023-01-26T10:07:38.455Z,1.93
2023-01-26T10:10:18.230Z,1.93
2023-01-26T10:12:52.100Z,1.93
2023-01-26T10:15:33.230Z,1.85
2023-01-26T10:18:14.104Z,1.81
2023-01-26T10:20:49.800Z,1.78
2023-01-26T10:23:26.982Z,1.76
2023-01-26T10:26:12.330Z,1.77
2023-01-26T10:28:46.789Z,1.75
2023-01-26T10:31:21.809Z,1.72
2023-01-26T10:33:56.827Z,1.72
2023-01-26T10:36:33.109Z,1.74
2023-01-26T10:39:10.369Z,1.78
2023-01-26T10:41:56.754Z,1.85
2023-01-26T10:44:35.562Z,1.89
2023-01-26T10:47:21.612Z,1.93
2023-01-26T10:49:53.893Z,1.98
2023-01-26T10:52:27.365Z,2.03
2023-01-26T10:55:14.220Z,2.05
2023-01-26T10:57:46.966Z,2.07
2023-01-26T11:00:29.122Z,2.10
2023-01-26T11:03:17.824Z,2.07
2023-01-26T11:06:09.582Z,2.09
2023-01-26T11:08:42.637Z,2.13
2023-01-26T11:11:28.457Z,2.12
2023-01-26T11:14:19.434Z,2.17
2023-01-26T11:16:55.800Z,2.18
2023-01-26T11:19:43.651Z,2.20
2023-01-26T11:22:21.028Z,2.22
2023-01-26T11:25:02.010Z,2.22
2023-01-26T11:27:47.585Z,2.23
2023-01-26T11:30:43.346Z,2.31
2023-01-26T11:33:26.987Z,2.39
2023-01-26T11:36:08.475Z,2.38
2023-01-26T11:38:43.437Z,2.35
2023-01-26T11:41:33.354Z,2.33
2023-01-26T11:44:26.974Z,2.32
2023-01-26T11:47:14.740Z,2.33
2023-01-26T11:50:06.372Z,2.36
2023-01-26T11:52:50.242Z,2.40
2023-01-26T11:55:33.045Z,2.45
2023-01-26T11:58:22.153Z,2.45
2023-01-26T12:00:57.743Z,2.46
2023-01-26T12:03:36.716Z,2.51
2023-01-26T12:06:16.919Z,2.55
2023-01-26T12:08:55.061Z,2.58
2023-01-26T12:11:34.612Z,2.54
2023-01-26T12:14:15.787Z,2.56
2023-01-26T12:17:15.596Z,2.60
2023-01-26T12:19:56.053Z,2.62
2023-01-26T12:22:34.405Z,2.62
2023-01-26T12:25:22.476Z,2.67
2023-01-26T12:28:01.425Z,2.67
2023-01-26T12:30:44.519Z,2.66
2023-01-26T12:33:17.192Z,2.64
2023-01-26T12:36:06.260Z,2.66
2023-01-26T12:38:51.112Z,2.67
2023-01-26T12:41:33.610Z,2.65
2023-01-26T12:44:19.715Z,2.67
2023-01-26T12:46:56.281Z,2.73
2023-01-26T12:49:33.869Z,2.80
2023-01-26T12:52:12.986Z,2.85
2023-01-26T12:54:50.651Z,2.89
2023-01-26T12:57:26.814Z,2.90
2023-01-26T13:00:18.840Z,2.95
2023-01-26T13:02:54.432Z,2.98
2023-01-26T13:05:33.826Z,3.01
2023-01-26T13:08:32.961Z,2.91
2023-01-26T13:11:06.853Z,2.79
2023-01-26T13:13:56.482Z,2.71
2023-01-26T13:16:38.128Z,2.67
2023-01-26T13:19:47.080Z,2.65
2023-01-26T13:22:42.458Z,2.61
2023-01-26T13:25:21.593Z,2.61
2023-01-26T13:27:59.882Z,2.62
2023-01-26T13:31:03.949Z,2.60
2023-01-26T13:33:36.598Z,2.60
2023-01-26T13:36:16.178Z,2.62
2023-01-26T13:38:57.086Z,2.61
2023-01-26T13:41:29.482Z,2.65
2023-01-26T13:44:11.548Z,2.65
2023-01-26T13:46:50.660Z,2.71
2023-01-26T13:49:38.395Z,2.78
2023-01-26T13:52:20.179Z,2.84
2023-01-26T13:54:54.813Z,2.86
2023-01-26T13:57:29.425Z,2.90
2023-01-26T14:00:02.757Z,2.96
2023-01-26T14:02:38.904Z,2.98
2023-01-26T14:05:24.460Z,3.03
2023-01-26T14:07:57.532Z,3.03
2023-01-26T14:10:29.855Z,3.02
2023-01-26T14:13:04.397Z,3.01
2023-01-26T14:15:36.712Z,3.00
2023-01-26T14:18:20.099Z,3.00
2023-01-26T14:20:59.046Z,2.97
2023-01-26T14:23:35.532Z,2.95
2023-01-26T14:26:13.673Z,2.93
2023-01-26T14:28:46.996Z,2.93
2023-01-26T14:31:23.714Z,2.95
2023-01-26T14:33:58.986Z,2.92
2023-01-26T14:36:37.108Z,2.92
2023-01-26T14:39:19.659Z,2.91
2023-01-26T14:41:52.383Z,2.86
2023-01-26T14:44:24.726Z,2.86
2023-01-26T14:47:03.035Z,2.83
2023-01-26T14:49:44.143Z,2.84
2023-01-26T14:52:25.699Z,2.85
2023-01-26T14:55:00.365Z,2.86
2023-01-26T14:57:34.384Z,2.82
2023-01-26T15:00:10.592Z,2.84
2023-01-26T15:02:50.208Z,2.82
2023-01-26T15:05:24.678Z,2.84
2023-01-26T15:08:00.900Z,2.85
2023-01-26T15:10:42.418Z,2.83
2023-01-26T15:13:25.581Z,2.84
2023-01-26T15:16:15.971Z,2.82
2023-01-26T15:18:59.101Z,2.80
2023-01-26T15:21:39.692Z,2.72
2023-01-26T15:24:16.453Z,2.72
2023-01-26T15:26:49.809Z,2.72
2023-01-26T15:29:27.532Z,2.73
2023-01-26T15:32:00.672Z,2.69
2023-01-26T15:34:36.863Z,2.66
2023-01-26T15:37:31.103Z,2.62
2023-01-26T15:40:04.460Z,2.65
2023-01-26T15:42:36.844Z,2.60
2023-01-26T15:45:22.844Z,2.59
2023-01-26T15:47:55.125Z,2.56
2023-01-26T15:50:28.487Z,2.57
2023-01-26T15:53:01.094Z,2.59
2023-01-26T15:55:34.754Z,2.60
2023-01-26T15:58:06.997Z,2.60
2023-01-26T16:00:40.487Z,2.62
2023-01-26T16:03:17.376Z,2.61
2023-01-26T16:05:49.970Z,2.64
2023-01-26T16:08:22.733Z,2.64
2023-01-26T16:10:57.180Z,2.67
2023-01-26T16:13:29.688Z,2.67
2023-01-26T16:16:02.022Z,2.66
2023-01-26T16:18:34.720Z,2.68
2023-01-26T16:21:20.814Z,2.70
2023-01-26T16:23:53.399Z,2.73
2023-01-26T16:26:28.959Z,2.76
2023-01-26T16:29:01.473Z,2.79
2023-01-26T16:31:36.732Z,2.82
2023-01-26T16:34:10.876Z,2.82
2023-01-26T16:36:43.227Z,2.84
2023-01-26T16:39:15.677Z,2.89
2023-01-26T16:41:48.001Z,2.91
2023-01-26T16:44:22.162Z,2.91
2023-01-26T16:46:54.321Z,2.95
2023-01-26T16:49:27.025Z,2.97
2023-01-26T16:51:59.456Z,3.01
2023-01-26T16:54:31.772Z,3.07
2023-01-26T16:57:04.194Z,3.09
2023-01-26T16:59:36.383Z,3.11
2023-01-26T17:02:13.319Z,3.11
2023-01-26T17:04:46.102Z,3.12
2023-01-26T17:07:18.866Z,3.15
2023-01-26T17:09:51.705Z,3.17
2023-01-26T17:12:24.095Z,3.18
2023-01-26T17:14:56.863Z,3.20
2023-01-26T17:17:29.399Z,3.20
2023-01-26T17:20:17.647Z,3.21
2023-01-26T17:22:51.592Z,3.24
2023-01-26T17:25:23.933Z,3.27
2023-01-26T17:27:56.248Z,3.28
2023-01-26T17:30:28.560Z,3.28
2023-01-26T17:33:02.091Z,3.25
2023-01-26T17:35:34.495Z,3.28
2023-01-26T17:38:06.697Z,3.28
2023-01-26T17:40:38.962Z,3.29
2023-01-26T17:43:11.317Z,3.31
2023-01-26T17:45:43.836Z,3.30
2023-01-26T17:48:16.193Z,3.28
2023-01-26T17:50:52.221Z,3.26
2023-01-26T17:53:24.540Z,3.29
2023-01-26T17:55:56.777Z,3.28
2023-01-26T17:58:29.003Z,3.27
2023-01-26T18:01:01.311Z,3.25
2023-01-26T18:03:33.772Z,3.23
2023-01-26T18:06:06.758Z,3.23
2023-01-26T18:08:40.173Z,3.25
2023-01-26T18:11:15.125Z,3.25
2023-01-26T18:13:47.696Z,3.27
2023-01-26T18:16:21.872Z,3.26
2023-01-26T18:18:58.798Z,3.32
2023-01-26T18:21:34.235Z,3.31
2023-01-26T18:24:08.678Z,3.29
2023-01-26T18:26:41.299Z,3.28
2023-01-26T18:29:14.951Z,3.27
2023-01-26T18:31:48.099Z,3.27
2023-01-26T18:34:21.328Z,3.26
2023-01-26T18:36:53.806Z,3.25
2023-01-26T18:39:27.842Z,3.24
2023-01-26T18:42:00.321Z,3.26
2023-01-26T18:44:32.806Z,3.25
2023-01-26T18:47:05.738Z,3.25
2023-01-26T18:49:38.018Z,3.26
2023-01-26T18:52:10.330Z,3.25
2023-01-26T18:54:42.771Z,3.25
2023-01-26T18:57:15.490Z,3.25
2023-01-26T18:59:48.309Z,3.23
2023-01-26T19:02:20.693Z,3.23
2023-01-26T19:04:53.780Z,3.24
2023-01-26T19:07:26.133Z,3.25
2023-01-26T19:09:58.450Z,3.25
2023-01-26T19:12:30.753Z,3.25
2023-01-26T19:15:03.219Z,3.22
2023-01-26T19:17:35.489Z,3.21
2023-01-26T19:20:09.692Z,3.19
2023-01-26T19:22:42.021Z,3.16
2023-01-26T19:25:14.375Z,3.16
2023-01-26T19:27:47.240Z,3.15
2023-01-26T19:30:20.619Z,3.15
2023-01-26T19:33:10.827Z,3.14
2023-01-26T19:35:43.474Z,3.15
2023-01-26T19:38:15.753Z,3.19
2023-01-26T19:40:49.986Z,3.22
2023-01-26T19:43:24.041Z,3.21
2023-01-26T19:45:58.690Z,3.21
2023-01-26T19:48:31.301Z,3.24
2023-01-26T19:51:08.389Z,3.24
2023-01-26T19:53:46.219Z,3.25
2023-01-26T19:56:20.493Z,3.24
2023-01-26T19:58:55.426Z,3.26
2023-01-26T20:01:29.831Z,3.27
2023-01-26T20:04:04.796Z,3.29
2023-01-26T20:06:38.133Z,3.29
2023-01-26T20:09:11.097Z,3.27
2023-01-26T20:11:43.496Z,3.28
2023-01-26T20:14:15.767Z,3.28
2023-01-26T20:16:48.091Z,3.26
2023-01-26T20:19:20.806Z,3.22
2023-01-26T20:21:53.220Z,3.18
2023-01-26T20:24:26.647Z,3.17
2023-01-26T20:26:59.057Z,3.17
2023-01-26T20:29:31.378Z,3.15
2023-01-26T20:32:04.263Z,3.15
2023-01-26T20:34:41.001Z,3.13
2023-01-26T20:37:13.666Z,3.11
2023-01-26T20:39:46.974Z,3.11
2023-01-26T20:42:19.673Z,3.10
2023-01-26T20:44:52.082Z,3.09
2023-01-26T20:47:24.464Z,3.10
2023-01-26T20:49:57.226Z,3.09
2023-01-26T20:52:29.579Z,3.07
2023-01-26T20:55:02.721Z,3.06
2023-01-26T20:57:35.403Z,3.04
2023-01-26T21:00:10.404Z,3.04
2023-01-26T21:02:42.779Z,3.03
2023-01-26T21:05:15.336Z,3.03
2023-01-26T21:07:47.608Z,3.02
2023-01-26T21:10:20.283Z,3.01
2023-01-26T21:12:52.633Z,3.01
2023-01-26T21:15:24.985Z,2.99
2023-01-26T21:17:57.261Z,2.98
2023-01-26T21:20:29.647Z,2.96
2023-01-26T21:23:02.025Z,2.97
2023-01-26T21:25:34.469Z,2.93
2023-01-26T21:28:06.881Z,2.94
2023-01-26T21:30:39.338Z,2.94
2023-01-26T21:33:12.237Z,2.94
2023-01-26T21:35:44.532Z,2.94
2023-01-26T21:38:16.785Z,2.95
2023-01-26T21:40:49.214Z,2.93
2023-01-26T21:43:21.718Z,2.92
2023-01-26T21:45:56.130Z,2.86
2023-01-26T21:48:31.788Z,2.82
2023-01-26T21:51:22.208Z,2.83
2023-01-26T21:53:54.652Z,2.82
2023-01-26T21:56:26.997Z,2.80
2023-01-26T21:59:02.805Z,2.78
2023-01-26T22:01:37.717Z,2.77
2023-01-26T22:04:12.487Z,2.75
2023-01-26T22:06:45.381Z,2.75
2023-01-26T22:09:18.798Z,2.73
2023-01-26T22:11:51.801Z,2.71
2023-01-26T22:14:26.307Z,2.69
2023-01-26T22:16:58.609Z,2.71
2023-01-26T22:19:31.004Z,2.72
2023-01-26T22:22:03.796Z,2.72
2023-01-26T22:24:36.011Z,2.70
2023-01-26T22:27:08.868Z,2.76
2023-01-26T22:29:41.308Z,2.77
2023-01-26T22:32:13.756Z,2.77
2023-01-26T22:34:46.157Z,2.75
2023-01-26T22:37:18.462Z,2.73
2023-01-26T22:39:50.861Z,2.70
2023-01-26T22:42:23.908Z,2.69
2023-01-26T22:44:56.400Z,2.68
2023-01-26T22:47:28.732Z,2.68
2023-01-26T22:50:01.368Z,2.67
2023-01-26T22:52:33.742Z,2.62
2023-01-26T22:55:06.588Z,2.63
2023-01-26T22:57:38.896Z,2.59
2023-01-26T23:00:15.048Z,2.55
2023-01-26T23:02:47.917Z,2.52
2023-01-26T23:05:20.402Z,2.50
2023-01-26T23:07:52.565Z,2.47
2023-01-26T23:10:24.828Z,2.46
2023-01-26T23:12:57.313Z,2.46
2023-01-26T23:15:29.621Z,2.44
2023-01-26T23:18:01.891Z,2.44
2023-01-26T23:20:34.286Z,2.41
2023-01-26T23:23:06.453Z,2.41
2023-01-26T23:25:53.891Z,2.37
2023-01-26T23:28:27.989Z,2.36
2023-01-26T23:31:01.358Z,2.34
2023-01-26T23:33:35.036Z,2.29
2023-01-26T23:36:09.575Z,2.24
2023-01-26T23:38:42.250Z,2.17
2023-01-26T23:41:15.495Z,2.09
2023-01-26T23:43:47.887Z,1.99
2023-01-26T23:46:20.310Z,1.91
2023-01-26T23:48:52.526Z,1.84
2023-01-26T23:51:25.014Z,1.79
2023-01-26T23:53:57.379Z,1.79
2023-01-26T23:56:29.802Z,1.76
2023-01-26T23:59:02.492Z,1.75
